createdAt,value
2022-09-28T00:01:59.011Z,97976.63
2022-09-28T00:04:25.668Z,97973.59
2022-09-28T00:06:52.602Z,97970.34
2022-09-28T00:09:19.201Z,97966.03
2022-09-28T00:11:46.843Z,97940.50
2022-09-28T00:14:13.815Z,97927.94
2022-09-28T00:16:43.930Z,97870.63
2022-09-28T00:19:12.630Z,97934.56
2022-09-28T00:21:40.851Z,97970.13
2022-09-28T00:24:18.642Z,97942.94
2022-09-28T00:26:45.222Z,97946.50
2022-09-28T00:29:26.928Z,97956.50
2022-09-28T00:31:59.833Z,97935.56
2022-09-28T00:34:27.343Z,97938.56
2022-09-28T00:36:54.003Z,97920.97
2022-09-28T00:39:21.409Z,97911.50
2022-09-28T00:41:48.115Z,97923.56
2022-09-28T00:44:22.700Z,97913.75
2022-09-28T00:46:52.449Z,97914.16
2022-09-28T00:49:22.633Z,97877.97
2022-09-28T00:51:49.232Z,97911.16
2022-09-28T00:54:16.704Z,97911.47
2022-09-28T00:56:46.916Z,97893.25
2022-09-28T00:59:15.563Z,97878.56
2022-09-28T01:01:42.210Z,97868.34
2022-09-28T01:04:08.877Z,97896.00
2022-09-28T01:06:37.682Z,97884.38
2022-09-28T01:09:07.656Z,97879.44
2022-09-28T01:11:38.328Z,97871.75
2022-09-28T01:14:10.386Z,97867.00
2022-09-28T01:16:54.499Z,97884.59
2022-09-28T01:19:58.232Z,97855.22
2022-09-28T01:22:45.813Z,97856.25
2022-09-28T01:25:38.648Z,97850.63
2022-09-28T01:28:12.064Z,97849.50
2022-09-28T01:31:05.500Z,97839.59
2022-09-28T01:33:49.028Z,97800.22
2022-09-28T01:36:24.979Z,97803.47
2022-09-28T01:38:56.143Z,97805.34
2022-09-28T01:41:28.649Z,97785.25
2022-09-28T01:43:57.444Z,97781.47
2022-09-28T01:46:30.279Z,97807.63
2022-09-28T01:48:58.755Z,97809.81
2022-09-28T01:51:31.274Z,97790.81
2022-09-28T01:54:05.295Z,97783.63
2022-09-28T01:56:40.200Z,97796.31
2022-09-28T01:59:13.067Z,97788.81
2022-09-28T02:01:47.672Z,97781.78
2022-09-28T02:04:19.962Z,97775.59
2022-09-28T02:06:55.983Z,97756.41
2022-09-28T02:09:33.570Z,97755.25
2022-09-28T02:12:06.484Z,97763.06
2022-09-28T02:14:36.388Z,97764.47
2022-09-28T02:17:03.577Z,97754.81
2022-09-28T02:19:33.075Z,97768.13
2022-09-28T02:21:59.672Z,97754.59
2022-09-28T02:24:40.801Z,97761.59
2022-09-28T02:27:49.821Z,97745.94
2022-09-28T02:30:17.955Z,97750.41
2022-09-28T02:32:49.238Z,97754.22
2022-09-28T02:35:18.571Z,97750.66
2022-09-28T02:37:46.042Z,97747.91
2022-09-28T02:40:28.925Z,97684.47
2022-09-28T02:43:25.218Z,97732.22
2022-09-28T02:46:05.251Z,97682.97
2022-09-28T02:49:23.632Z,97768.88
2022-09-28T02:52:13.648Z,97766.59
2022-09-28T02:55:18.620Z,97772.13
2022-09-28T02:58:12.384Z,97765.81
2022-09-28T03:00:55.353Z,97767.75
2022-09-28T03:03:37.663Z,97756.03
2022-09-28T03:06:22.021Z,97758.03
2022-09-28T03:09:00.967Z,97752.03
2022-09-28T03:11:40.665Z,97710.59
2022-09-28T03:14:07.567Z,97744.19
2022-09-28T03:16:44.744Z,97729.69
2022-09-28T03:19:17.254Z,97750.88
2022-09-28T03:21:44.068Z,97738.44
2022-09-28T03:24:11.076Z,97719.44
2022-09-28T03:26:41.372Z,97740.97
2022-09-28T03:29:08.299Z,97749.34
2022-09-28T03:31:35.215Z,97730.50
2022-09-28T03:34:02.632Z,97679.88
2022-09-28T03:36:30.171Z,97715.31
2022-09-28T03:38:56.877Z,97741.88
2022-09-28T03:41:25.047Z,97716.56
2022-09-28T03:43:51.686Z,97730.81
2022-09-28T03:46:18.369Z,97744.28
2022-09-28T03:48:49.110Z,97744.00
2022-09-28T03:51:15.904Z,97731.22
2022-09-28T03:53:42.541Z,97730.63
2022-09-28T03:56:13.239Z,97743.75
2022-09-28T03:58:41.051Z,97701.84
2022-09-28T04:01:17.572Z,97737.53
2022-09-28T04:03:46.577Z,97739.50
2022-09-28T04:06:14.351Z,97736.94
2022-09-28T04:08:41.052Z,97731.31
2022-09-28T04:11:08.678Z,97714.53
2022-09-28T04:13:35.501Z,97719.81
2022-09-28T04:16:02.425Z,97748.13
2022-09-28T04:18:33.040Z,97732.25
2022-09-28T04:21:22.630Z,97733.28
2022-09-28T04:24:02.045Z,97744.75
2022-09-28T04:26:28.752Z,97738.31
2022-09-28T04:29:15.071Z,97663.31
2022-09-28T04:31:49.625Z,97722.66
2022-09-28T04:34:22.090Z,97732.56
2022-09-28T04:36:49.934Z,97728.06
2022-09-28T04:39:18.160Z,97735.66
2022-09-28T04:41:51.119Z,97661.69
2022-09-28T04:44:17.779Z,97733.69
2022-09-28T04:46:46.277Z,97747.75
2022-09-28T04:49:28.268Z,97742.69
2022-09-28T04:51:57.664Z,97749.59
2022-09-28T04:54:24.232Z,97743.63
2022-09-28T04:56:52.482Z,97725.91
2022-09-28T04:59:19.510Z,97739.81
2022-09-28T05:01:47.463Z,97715.88
2022-09-28T05:04:32.768Z,97759.94
2022-09-28T05:07:26.762Z,97780.69
2022-09-28T05:09:55.063Z,97771.16
2022-09-28T05:12:21.940Z,97754.81
2022-09-28T05:14:48.546Z,97761.94
2022-09-28T05:17:15.322Z,97782.09
2022-09-28T05:20:02.675Z,97759.75
2022-09-28T05:22:29.375Z,97761.00
2022-09-28T05:24:56.347Z,97769.97
2022-09-28T05:27:24.102Z,97774.81
2022-09-28T05:29:59.698Z,97768.94
2022-09-28T05:32:58.547Z,97691.72
2022-09-28T05:35:29.596Z,97760.19
2022-09-28T05:37:57.235Z,97771.72
2022-09-28T05:40:24.000Z,97770.91
2022-09-28T05:42:50.611Z,97772.53
2022-09-28T05:45:17.244Z,97747.88
2022-09-28T05:47:46.128Z,97782.75
2022-09-28T05:50:16.246Z,97742.00
2022-09-28T05:52:43.768Z,97765.78
2022-09-28T05:55:11.142Z,97792.25
2022-09-28T05:57:38.318Z,97733.56
2022-09-28T06:00:08.686Z,97785.19
2022-09-28T06:02:45.276Z,97778.53
2022-09-28T06:05:13.165Z,97727.03
2022-09-28T06:07:40.290Z,97762.25
2022-09-28T06:10:07.299Z,97810.22
2022-09-28T06:12:42.177Z,97773.31
2022-09-28T06:15:15.476Z,97791.63
2022-09-28T06:17:43.775Z,97814.19
2022-09-28T06:20:32.404Z,97812.16
2022-09-28T06:23:13.091Z,97784.53
2022-09-28T06:25:40.229Z,97816.66
2022-09-28T06:28:10.544Z,97828.66
2022-09-28T06:30:38.524Z,97772.84
2022-09-28T06:33:12.514Z,97818.84
2022-09-28T06:35:39.935Z,97833.00
2022-09-28T06:38:06.848Z,97793.31
2022-09-28T06:40:34.775Z,97820.28
2022-09-28T06:43:12.521Z,97837.88
2022-09-28T06:45:57.936Z,97839.69
2022-09-28T06:48:44.279Z,97852.34
2022-09-28T06:51:18.764Z,97857.66
2022-09-28T06:54:08.752Z,97817.59
2022-09-28T06:56:58.296Z,97839.56
2022-09-28T06:59:25.086Z,97779.06
2022-09-28T07:01:52.162Z,97854.13
2022-09-28T07:04:42.912Z,97857.34
2022-09-28T07:07:31.266Z,97782.28
2022-09-28T07:10:12.803Z,97856.97
2022-09-28T07:13:14.701Z,97854.97
2022-09-28T07:15:57.179Z,97870.53
2022-09-28T07:18:24.199Z,97693.09
2022-09-28T07:20:54.494Z,97872.84
2022-09-28T07:23:21.586Z,97882.19
2022-09-28T07:26:09.039Z,97882.19
2022-09-28T07:29:02.366Z,97877.56
2022-09-28T07:31:44.129Z,97872.75
2022-09-28T07:34:43.509Z,97895.03
2022-09-28T07:37:15.721Z,97890.34
2022-09-28T07:40:02.613Z,97851.56
2022-09-28T07:42:31.573Z,97899.16
2022-09-28T07:44:59.280Z,97906.22
2022-09-28T07:47:30.888Z,97880.38
2022-09-28T07:50:30.858Z,97898.25
2022-09-28T07:53:08.949Z,97892.88
2022-09-28T07:56:08.571Z,97895.50
2022-09-28T07:58:54.974Z,97840.41
2022-09-28T08:01:39.643Z,97906.94
2022-09-28T08:04:08.536Z,97929.88
2022-09-28T08:06:36.393Z,97919.25
2022-09-28T08:09:04.921Z,97928.94
2022-09-28T08:11:59.587Z,97924.34
2022-09-28T08:14:41.453Z,97919.47
2022-09-28T08:17:28.375Z,97926.06
2022-09-28T08:20:16.622Z,97911.06
2022-09-28T08:22:43.295Z,97915.81
2022-09-28T08:25:10.871Z,97922.03
2022-09-28T08:27:37.776Z,97924.75
2022-09-28T08:30:05.862Z,97921.75
2022-09-28T08:32:50.978Z,97918.28
2022-09-28T08:35:37.237Z,97931.88
2022-09-28T08:38:26.911Z,97932.41
2022-09-28T08:41:40.238Z,97939.94
2022-09-28T08:44:23.890Z,97961.22
2022-09-28T08:47:38.319Z,97970.53
2022-09-28T08:50:32.829Z,97979.97
2022-09-28T08:53:50.057Z,97966.84
2022-09-28T08:56:27.973Z,97972.28
2022-09-28T08:59:01.539Z,97936.84
2022-09-28T09:01:37.102Z,97946.91
2022-09-28T09:04:08.082Z,97912.69
2022-09-28T09:07:32.237Z,97940.19
2022-09-28T09:10:30.506Z,97938.84
2022-09-28T09:13:34.891Z,97942.28
2022-09-28T09:16:18.673Z,97929.25
2022-09-28T09:19:11.207Z,97959.28
2022-09-28T09:21:58.036Z,97973.63
2022-09-28T09:24:27.540Z,97962.84
2022-09-28T09:27:06.816Z,97968.06
2022-09-28T09:30:11.813Z,97968.44
2022-09-28T09:32:45.536Z,97969.91
2022-09-28T09:35:19.216Z,97969.53
2022-09-28T09:38:45.725Z,97954.22
2022-09-28T09:41:45.628Z,97964.53
2022-09-28T09:44:36.201Z,97961.28
2022-09-28T09:47:45.514Z,97972.03
2022-09-28T09:50:45.632Z,97986.25
2022-09-28T09:53:24.013Z,97981.25
2022-09-28T09:55:57.176Z,97991.78
2022-09-28T09:58:38.556Z,97986.91
2022-09-28T10:01:37.205Z,98011.59
2022-09-28T10:04:29.668Z,98001.97
2022-09-28T10:07:04.110Z,98025.66
2022-09-28T10:09:35.606Z,98035.28
2022-09-28T10:12:21.888Z,98026.47
2022-09-28T10:14:49.924Z,98032.88
2022-09-28T10:17:19.736Z,98025.91
2022-09-28T10:20:22.160Z,98011.84
2022-09-28T10:23:17.423Z,97885.63
2022-09-28T10:25:46.321Z,97994.97
2022-09-28T10:28:22.143Z,98015.25
2022-09-28T10:30:49.014Z,97975.69
2022-09-28T10:33:33.448Z,98020.56
2022-09-28T10:36:01.855Z,98002.97
2022-09-28T10:38:30.357Z,98004.66
2022-09-28T10:41:11.006Z,97998.91
2022-09-28T10:44:06.369Z,98011.97
2022-09-28T10:46:59.697Z,98029.16
2022-09-28T10:49:46.509Z,98040.03
2022-09-28T10:52:41.534Z,98043.84
2022-09-28T10:55:32.885Z,98039.00
2022-09-28T10:58:00.736Z,98034.94
2022-09-28T11:00:42.532Z,97986.88
2022-09-28T11:03:25.584Z,98041.16
2022-09-28T11:06:05.204Z,98038.22
2022-09-28T11:08:41.819Z,98019.44
2022-09-28T11:11:14.630Z,98027.78
2022-09-28T11:13:46.625Z,98050.78
2022-09-28T11:16:30.084Z,98048.97
2022-09-28T11:19:03.859Z,98042.03
2022-09-28T11:21:42.120Z,98054.50
2022-09-28T11:24:18.852Z,98048.41
2022-09-28T11:26:49.694Z,97997.72
2022-09-28T11:29:30.879Z,98039.84
2022-09-28T11:32:21.998Z,98028.41
2022-09-28T11:35:33.722Z,98043.31
2022-09-28T11:38:18.488Z,98037.16
2022-09-28T11:41:25.815Z,98025.94
2022-09-28T11:44:17.678Z,97991.41
2022-09-28T11:47:02.720Z,98043.59
2022-09-28T11:49:56.063Z,97987.69
2022-09-28T11:52:27.853Z,98008.97
2022-09-28T11:55:00.445Z,98053.22
2022-09-28T11:57:34.551Z,98029.75
2022-09-28T12:00:10.644Z,98037.88
2022-09-28T12:02:54.229Z,98027.94
2022-09-28T12:05:30.353Z,98022.69
2022-09-28T12:08:04.414Z,98009.47
2022-09-28T12:11:15.694Z,98011.00
2022-09-28T12:14:04.377Z,98008.31
2022-09-28T12:17:07.719Z,98006.06
2022-09-28T12:19:51.764Z,98009.50
2022-09-28T12:22:25.280Z,98008.59
2022-09-28T12:24:55.472Z,98017.44
2022-09-28T12:27:38.723Z,97997.56
2022-09-28T12:30:14.578Z,98017.13
2022-09-28T12:32:58.954Z,97947.16
2022-09-28T12:35:40.793Z,98016.34
2022-09-28T12:38:28.549Z,98021.28
2022-09-28T12:41:20.058Z,98004.34
2022-09-28T12:44:25.064Z,97998.66
2022-09-28T12:47:22.747Z,97991.47
2022-09-28T12:50:37.634Z,97979.25
2022-09-28T12:53:26.818Z,98025.56
2022-09-28T12:56:09.731Z,98027.47
2022-09-28T12:58:59.973Z,98027.56
2022-09-28T13:01:38.745Z,98029.94
2022-09-28T13:04:13.634Z,98013.19
2022-09-28T13:06:53.170Z,97997.56
2022-09-28T13:09:22.092Z,98001.06
2022-09-28T13:11:58.657Z,98020.31
2022-09-28T13:14:31.275Z,98021.38
2022-09-28T13:17:16.842Z,98011.66
2022-09-28T13:20:23.281Z,98016.38
2022-09-28T13:22:49.854Z,98001.16
2022-09-28T13:25:20.617Z,97988.50
2022-09-28T13:28:07.547Z,97997.06
2022-09-28T13:30:38.969Z,97921.53
2022-09-28T13:33:10.386Z,97990.94
2022-09-28T13:35:43.117Z,97981.19
2022-09-28T13:38:18.511Z,97987.03
2022-09-28T13:41:03.397Z,97991.84
2022-09-28T13:44:01.327Z,97991.69
2022-09-28T13:46:53.989Z,97993.59
2022-09-28T13:49:26.480Z,98000.47
2022-09-28T13:52:30.053Z,98002.19
2022-09-28T13:55:10.773Z,98000.09
2022-09-28T13:57:47.145Z,97991.44
2022-09-28T14:00:19.725Z,98009.66
2022-09-28T14:03:27.892Z,98026.13
2022-09-28T14:06:03.934Z,98029.53
2022-09-28T14:08:34.526Z,98036.00
2022-09-28T14:11:24.943Z,98030.88
2022-09-28T14:14:00.339Z,98034.84
2022-09-28T14:16:32.323Z,98030.22
2022-09-28T14:19:24.149Z,98018.41
2022-09-28T14:22:09.137Z,98025.91
2022-09-28T14:24:57.659Z,98023.00
2022-09-28T14:27:45.681Z,98010.13
2022-09-28T14:30:12.274Z,98028.25
2022-09-28T14:32:43.137Z,98022.50
2022-09-28T14:35:38.685Z,98018.84
2022-09-28T14:38:37.612Z,98034.78
2022-09-28T14:41:11.233Z,98030.25
2022-09-28T14:44:08.555Z,98024.00
2022-09-28T14:46:36.790Z,98016.81
2022-09-28T14:49:19.547Z,98014.09
2022-09-28T14:51:58.486Z,98029.91
2022-09-28T14:54:28.157Z,98026.22
2022-09-28T14:56:57.601Z,98027.44
2022-09-28T14:59:26.131Z,98035.06
2022-09-28T15:02:06.294Z,98028.28
2022-09-28T15:04:36.566Z,98059.72
2022-09-28T15:07:03.368Z,97979.38
2022-09-28T15:09:32.705Z,98016.50
2022-09-28T15:12:07.615Z,98037.41
2022-09-28T15:14:44.186Z,98029.97
2022-09-28T15:17:14.208Z,98046.81
2022-09-28T15:19:46.959Z,98044.66
2022-09-28T15:22:18.321Z,98034.50
2022-09-28T15:24:53.592Z,98014.38
2022-09-28T15:27:20.296Z,98040.19
2022-09-28T15:30:01.024Z,98044.09
2022-09-28T15:32:29.727Z,98039.75
2022-09-28T15:34:57.958Z,98029.03
2022-09-28T15:37:29.285Z,98041.63
2022-09-28T15:39:58.442Z,98038.44
2022-09-28T15:42:25.863Z,98041.38
2022-09-28T15:45:02.982Z,97940.16
2022-09-28T15:47:31.786Z,98009.56
2022-09-28T15:50:04.804Z,98032.41
2022-09-28T15:52:36.397Z,98044.38
2022-09-28T15:55:06.265Z,98041.28
2022-09-28T15:57:39.040Z,98045.56
2022-09-28T16:00:21.172Z,98041.81
2022-09-28T16:03:16.998Z,98049.00
2022-09-28T16:05:48.226Z,97973.72
2022-09-28T16:08:39.754Z,98049.13
2022-09-28T16:11:27.351Z,98050.00
2022-09-28T16:14:20.349Z,98050.25
2022-09-28T16:16:49.560Z,98052.13
2022-09-28T16:19:29.695Z,98036.88
2022-09-28T16:22:02.473Z,98049.13
2022-09-28T16:24:36.197Z,98042.44
2022-09-28T16:27:04.157Z,98056.72
2022-09-28T16:29:39.881Z,98062.53
2022-09-28T16:32:25.230Z,98053.41
2022-09-28T16:35:13.095Z,98064.59
2022-09-28T16:37:42.638Z,98075.66
2022-09-28T16:40:10.508Z,98046.91
2022-09-28T16:42:38.880Z,97948.38
2022-09-28T16:45:06.853Z,98016.91
2022-09-28T16:47:34.540Z,98002.81
2022-09-28T16:50:03.920Z,98071.69
2022-09-28T16:52:48.795Z,98078.53
2022-09-28T16:55:36.220Z,98072.03
2022-09-28T16:58:04.487Z,98001.28
2022-09-28T17:00:32.419Z,98076.94
2022-09-28T17:02:59.306Z,98038.69
2022-09-28T17:05:26.383Z,98089.56
2022-09-28T17:08:04.297Z,98088.09
2022-09-28T17:10:56.179Z,98089.94
2022-09-28T17:13:33.856Z,97992.47
2022-09-28T17:16:08.956Z,98032.06
2022-09-28T17:18:38.950Z,98075.47
2022-09-28T17:21:15.853Z,98102.00
2022-09-28T17:23:43.582Z,98108.53
2022-09-28T17:26:30.762Z,98048.28
2022-09-28T17:28:59.337Z,98110.50
2022-09-28T17:31:26.507Z,98109.41
2022-09-28T17:33:54.163Z,98119.50
2022-09-28T17:36:22.397Z,98112.88
2022-09-28T17:38:51.565Z,98120.88
2022-09-28T17:41:20.820Z,98117.88
2022-09-28T17:43:48.621Z,97994.22
2022-09-28T17:46:15.267Z,98114.78
2022-09-28T17:48:46.053Z,98115.22
2022-09-28T17:51:14.805Z,98111.88
2022-09-28T17:53:41.859Z,98140.25
2022-09-28T17:56:09.772Z,98131.94
2022-09-28T17:58:36.641Z,98095.63
2022-09-28T18:01:03.331Z,98126.44
2022-09-28T18:03:30.142Z,98111.72
2022-09-28T18:06:04.117Z,98109.09
2022-09-28T18:08:31.272Z,98137.47
2022-09-28T18:10:58.067Z,98132.66
2022-09-28T18:13:27.177Z,98089.47
2022-09-28T18:15:55.514Z,98127.34
2022-09-28T18:18:24.101Z,98128.69
2022-09-28T18:20:51.298Z,98144.75
2022-09-28T18:23:18.325Z,98101.38
2022-09-28T18:25:46.253Z,98151.34
2022-09-28T18:28:13.868Z,98155.38
2022-09-28T18:30:43.498Z,98163.91
2022-09-28T18:33:13.295Z,98168.84
2022-09-28T18:35:41.025Z,98139.19
2022-09-28T18:38:07.980Z,98155.34
2022-09-28T18:40:35.475Z,98140.59
2022-09-28T18:43:03.452Z,98153.84
2022-09-28T18:45:30.280Z,98163.06
2022-09-28T18:47:59.023Z,98132.63
2022-09-28T18:50:26.048Z,98170.47
2022-09-28T18:52:52.784Z,98160.44
2022-09-28T18:55:20.010Z,98183.31
2022-09-28T18:57:47.534Z,98178.03
2022-09-28T19:00:15.256Z,98178.59
2022-09-28T19:02:42.412Z,98176.72
2022-09-28T19:05:09.616Z,98175.44
2022-09-28T19:07:36.281Z,98176.16
2022-09-28T19:10:03.440Z,98189.19
2022-09-28T19:12:30.189Z,98186.41
2022-09-28T19:14:56.939Z,98197.03
2022-09-28T19:17:23.860Z,98170.00
2022-09-28T19:19:51.590Z,98195.97
2022-09-28T19:22:18.327Z,98187.34
2022-09-28T19:24:45.088Z,98196.78
2022-09-28T19:27:11.759Z,98182.59
2022-09-28T19:29:38.409Z,98176.16
2022-09-28T19:32:05.077Z,98169.91
2022-09-28T19:34:31.808Z,98205.78
2022-09-28T19:36:58.504Z,98200.69
2022-09-28T19:39:25.191Z,98214.78
2022-09-28T19:41:52.385Z,98204.91
2022-09-28T19:44:25.269Z,98216.00
2022-09-28T19:46:58.035Z,98212.66
2022-09-28T19:49:27.038Z,98207.09
2022-09-28T19:52:15.102Z,98219.69
2022-09-28T19:54:56.559Z,98138.63
2022-09-28T19:57:32.899Z,98219.03
2022-09-28T20:00:03.187Z,98207.34
2022-09-28T20:02:34.444Z,98222.50
2022-09-28T20:05:01.276Z,98225.28
2022-09-28T20:07:32.595Z,98228.00
2022-09-28T20:09:59.205Z,98234.06
2022-09-28T20:12:26.401Z,98222.81
2022-09-28T20:14:53.118Z,98234.91
2022-09-28T20:17:21.623Z,98243.66
2022-09-28T20:19:51.615Z,98237.78
2022-09-28T20:22:19.277Z,98242.50
2022-09-28T20:24:45.952Z,98247.13
2022-09-28T20:27:12.581Z,98244.47
2022-09-28T20:29:39.264Z,98251.41
2022-09-28T20:32:05.985Z,98235.00
2022-09-28T20:34:33.962Z,98243.22
2022-09-28T20:37:01.238Z,98258.53
2022-09-28T20:39:27.958Z,98250.47
2022-09-28T20:41:54.989Z,98256.31
2022-09-28T20:44:21.799Z,98253.88
2022-09-28T20:46:51.695Z,98244.41
2022-09-28T20:49:18.348Z,98236.00
2022-09-28T20:51:45.189Z,98248.22
2022-09-28T20:54:11.807Z,98259.91
2022-09-28T20:56:38.907Z,98194.16
2022-09-28T20:59:11.372Z,98257.16
2022-09-28T21:01:38.188Z,98255.66
2022-09-28T21:04:06.558Z,98250.94
2022-09-28T21:06:36.544Z,98252.03
2022-09-28T21:09:04.293Z,98249.22
2022-09-28T21:11:31.450Z,98237.53
2022-09-28T21:14:00.385Z,98243.56
2022-09-28T21:16:30.094Z,98256.41
2022-09-28T21:18:57.486Z,98238.38
2022-09-28T21:21:25.512Z,98255.59
2022-09-28T21:23:54.137Z,98259.81
2022-09-28T21:26:25.850Z,98253.75
2022-09-28T21:28:56.620Z,98228.28
2022-09-28T21:31:28.705Z,98245.34
2022-09-28T21:33:56.607Z,98257.56
2022-09-28T21:36:23.307Z,98241.31
2022-09-28T21:38:50.037Z,98267.44
2022-09-28T21:41:16.697Z,98244.91
2022-09-28T21:43:43.290Z,98259.84
2022-09-28T21:46:10.146Z,98257.22
2022-09-28T21:48:36.939Z,98231.88
2022-09-28T21:51:06.176Z,98238.16
2022-09-28T21:53:34.675Z,98179.31
2022-09-28T21:56:02.451Z,98251.97
2022-09-28T21:58:31.414Z,98250.34
2022-09-28T22:01:03.960Z,98237.72
2022-09-28T22:03:32.217Z,98243.84
2022-09-28T22:05:58.834Z,98225.22
2022-09-28T22:08:26.042Z,98252.31
2022-09-28T22:11:05.649Z,98255.34
2022-09-28T22:13:35.282Z,98248.00
2022-09-28T22:16:02.287Z,98239.56
2022-09-28T22:18:30.921Z,98252.47
2022-09-28T22:21:08.979Z,98250.84
2022-09-28T22:23:36.861Z,98247.59
2022-09-28T22:26:07.786Z,98236.63
2022-09-28T22:28:34.708Z,98239.59
2022-09-28T22:31:01.790Z,98252.59
2022-09-28T22:33:28.545Z,98178.03
2022-09-28T22:35:55.597Z,98235.72
2022-09-28T22:38:24.297Z,98256.88
2022-09-28T22:40:55.971Z,98142.06
2022-09-28T22:43:23.784Z,98244.56
2022-09-28T22:46:00.058Z,98219.44
2022-09-28T22:48:26.761Z,98242.13
2022-09-28T22:50:53.488Z,98255.16
2022-09-28T22:53:20.126Z,98245.97
2022-09-28T22:55:46.766Z,98230.59
2022-09-28T22:58:13.770Z,98247.22
2022-09-28T23:00:40.448Z,98242.69
2022-09-28T23:03:07.267Z,98259.13
2022-09-28T23:05:33.904Z,98241.41
2022-09-28T23:08:00.733Z,98242.31
2022-09-28T23:10:27.510Z,98251.25
2022-09-28T23:12:54.870Z,98241.50
2022-09-28T23:15:22.334Z,98229.41
2022-09-28T23:17:52.765Z,98247.44
2022-09-28T23:20:23.574Z,98252.88
2022-09-28T23:22:50.531Z,98188.84
2022-09-28T23:25:18.179Z,98253.75
2022-09-28T23:27:46.593Z,98237.75
2022-09-28T23:30:15.343Z,98244.34
2022-09-28T23:32:42.293Z,98247.38
2022-09-28T23:35:09.685Z,98246.38
2022-09-28T23:37:37.604Z,98238.50
2022-09-28T23:40:06.233Z,98239.78
2022-09-28T23:42:34.670Z,98240.25
2022-09-28T23:45:01.326Z,98232.56
2022-09-28T23:47:27.911Z,98144.59
2022-09-28T23:49:54.491Z,98228.50
2022-09-28T23:52:21.073Z,98237.88
2022-09-28T23:54:47.679Z,98258.19
2022-09-28T23:57:14.314Z,98242.53
2022-09-28T23:59:40.892Z,98248.03
